createdAt,value
2019-02-10T00:09:24.223Z,39.80
2019-02-10T01:55:41.154Z,40.40
2019-02-10T01:58:09.672Z,42.70
2019-02-10T02:00:38.633Z,42.70
2019-02-10T02:03:07.145Z,42.40
2019-02-10T02:05:35.669Z,42.30
2019-02-10T02:08:04.303Z,42.10
2019-02-10T02:10:32.786Z,40.90
2019-02-10T02:13:01.388Z,41.40
2019-02-10T02:15:30.028Z,41.50
2019-02-10T02:17:58.584Z,41.20
2019-02-10T02:20:27.069Z,41.30
2019-02-10T02:22:55.657Z,41.30
2019-02-10T02:25:24.194Z,41.30
2019-02-10T02:27:52.653Z,41.30
2019-02-10T02:30:21.185Z,41.20
2019-02-10T02:32:49.662Z,41.30
2019-02-10T02:35:18.176Z,41.20
2019-02-10T02:37:46.688Z,41.10
2019-02-10T02:40:15.208Z,41.00
2019-02-10T02:42:43.675Z,41.00
2019-02-10T02:45:12.245Z,41.00
2019-02-10T02:47:40.801Z,40.90
2019-02-10T02:50:12.031Z,40.90
2019-02-10T02:52:40.591Z,40.90
2019-02-10T02:55:09.664Z,40.90
2019-02-10T02:57:38.141Z,41.50
2019-02-10T03:00:10.359Z,40.80
2019-02-10T03:02:38.854Z,40.80
2019-02-10T03:05:08.510Z,40.60
2019-02-10T03:07:37.015Z,40.50
2019-02-10T03:10:06.555Z,40.60
2019-02-10T03:12:35.040Z,40.60
2019-02-10T03:15:03.642Z,40.50
2019-02-10T03:17:32.168Z,40.70
2019-02-10T03:20:00.645Z,40.70
2019-02-10T03:22:29.162Z,40.60
2019-02-10T03:24:57.665Z,40.50
2019-02-10T03:27:26.225Z,40.50
2019-02-10T03:29:54.737Z,40.40
2019-02-10T03:32:23.216Z,40.40
2019-02-10T03:34:51.848Z,40.40
2019-02-10T03:37:26.852Z,40.30
2019-02-10T03:39:50.457Z,40.30
2019-02-10T03:42:19.032Z,40.30
2019-02-10T03:44:47.523Z,40.20
2019-02-10T03:47:16.046Z,40.30
2019-02-10T03:49:44.518Z,40.30
2019-02-10T03:52:13.033Z,40.20
2019-02-10T03:54:41.502Z,40.20
2019-02-10T03:57:09.990Z,40.10
2019-02-10T03:59:38.504Z,40.10
2019-02-10T04:02:06.975Z,40.20
2019-02-10T04:04:35.550Z,40.10
2019-02-10T04:07:04.074Z,40.10
2019-02-10T04:09:32.963Z,40.10
2019-02-10T04:12:01.496Z,40.00
2019-02-10T04:14:30.050Z,40.00
2019-02-10T04:16:58.533Z,40.10
2019-02-10T04:19:27.037Z,39.90
2019-02-10T04:21:55.519Z,40.60
2019-02-10T04:24:24.114Z,40.00
2019-02-10T04:26:52.618Z,39.90
2019-02-10T04:29:21.141Z,40.00
2019-02-10T04:31:49.607Z,40.50
2019-02-10T04:34:18.190Z,39.80
2019-02-10T04:36:46.753Z,39.90
2019-02-10T04:39:15.320Z,39.70
2019-02-10T04:41:44.250Z,39.80
2019-02-10T04:44:12.781Z,39.60
2019-02-10T04:46:41.256Z,39.30
2019-02-10T04:49:11.073Z,35.80
2019-02-10T04:51:39.543Z,35.70
2019-02-10T04:54:08.113Z,35.90
2019-02-10T04:56:36.707Z,36.00
2019-02-10T04:59:05.234Z,35.90
2019-02-10T05:01:33.806Z,36.00
2019-02-10T05:04:02.444Z,36.00
2019-02-10T05:06:30.870Z,36.00
2019-02-10T05:08:59.410Z,35.90
2019-02-10T05:11:27.916Z,35.90
2019-02-10T05:13:56.379Z,35.50
2019-02-10T05:16:24.962Z,35.80
2019-02-10T05:18:53.437Z,35.70
2019-02-10T05:21:21.931Z,35.70
2019-02-10T05:23:50.425Z,35.70
2019-02-10T05:26:18.979Z,35.80
2019-02-10T05:28:47.480Z,35.70
2019-02-10T05:31:15.984Z,35.80
2019-02-10T05:33:44.518Z,35.80
2019-02-10T05:36:12.973Z,35.80
2019-02-10T05:38:41.492Z,35.70
2019-02-10T05:41:10.041Z,35.70
2019-02-10T05:43:38.567Z,35.90
2019-02-10T05:46:07.034Z,35.90
2019-02-10T05:48:35.517Z,35.90
2019-02-10T05:51:04.062Z,35.60
2019-02-10T05:53:35.732Z,35.70
2019-02-10T05:56:07.340Z,35.80
2019-02-10T05:58:35.838Z,35.80
2019-02-10T06:01:18.152Z,35.80
2019-02-10T06:03:46.687Z,35.80
2019-02-10T06:06:15.232Z,35.80
2019-02-10T06:08:43.766Z,35.90
2019-02-10T06:11:12.270Z,35.80
2019-02-10T06:13:40.831Z,35.60
2019-02-10T06:16:09.351Z,35.70
2019-02-10T06:18:37.820Z,35.90
2019-02-10T06:21:06.318Z,35.80
2019-02-10T06:23:34.830Z,35.90
2019-02-10T06:26:03.391Z,35.90
2019-02-10T06:28:31.949Z,35.90
2019-02-10T06:31:00.419Z,35.90
2019-02-10T06:33:28.939Z,35.80
2019-02-10T06:35:57.422Z,35.90
2019-02-10T06:38:25.882Z,36.00
2019-02-10T06:40:54.386Z,35.90
2019-02-10T06:43:22.860Z,36.60
2019-02-10T06:45:51.366Z,36.00
2019-02-10T06:48:19.844Z,36.00
2019-02-10T06:50:48.411Z,35.90
2019-02-10T06:53:16.867Z,35.90
2019-02-10T06:55:45.327Z,36.00
2019-02-10T06:58:17.158Z,36.00
2019-02-10T07:00:47.269Z,36.00
2019-02-10T07:03:31.463Z,36.00
2019-02-10T07:05:59.947Z,36.00
2019-02-10T07:08:30.671Z,36.10
2019-02-10T07:10:59.004Z,36.20
2019-02-10T07:13:29.137Z,36.30
2019-02-10T07:16:18.940Z,36.30
2019-02-10T07:19:08.591Z,36.30
2019-02-10T07:21:37.456Z,36.40
2019-02-10T07:24:24.111Z,36.40
2019-02-10T07:26:53.375Z,36.30
2019-02-10T07:29:38.479Z,36.30
2019-02-10T07:32:07.925Z,36.40
2019-02-10T07:34:53.052Z,36.50
2019-02-10T07:37:29.189Z,36.40
2019-02-10T07:40:02.500Z,36.40
2019-02-10T07:42:32.640Z,36.50
2019-02-10T07:45:05.585Z,36.60
2019-02-10T07:47:41.775Z,36.50
2019-02-10T07:50:18.106Z,36.40
2019-02-10T07:52:48.719Z,36.40
2019-02-10T07:55:18.847Z,36.50
2019-02-10T07:57:48.951Z,36.50
2019-02-10T08:00:35.511Z,36.50
2019-02-10T08:03:22.099Z,36.40
2019-02-10T08:06:10.149Z,37.10
2019-02-10T08:08:46.566Z,36.60
2019-02-10T08:11:20.613Z,36.40
2019-02-10T08:13:59.831Z,36.40
2019-02-10T08:16:32.667Z,36.40
2019-02-10T08:19:17.970Z,36.40
2019-02-10T08:21:53.930Z,36.50
2019-02-10T08:24:26.881Z,36.30
2019-02-10T08:26:57.053Z,36.40
2019-02-10T08:29:32.884Z,36.30
2019-02-10T08:32:15.289Z,36.30
2019-02-10T08:34:51.614Z,36.40
2019-02-10T08:37:38.405Z,36.50
2019-02-10T08:40:17.364Z,36.60
2019-02-10T08:42:50.429Z,36.70
2019-02-10T08:45:26.533Z,36.80
2019-02-10T08:47:59.367Z,37.00
2019-02-10T08:50:38.495Z,37.00
2019-02-10T08:53:08.721Z,37.20
2019-02-10T08:55:37.655Z,37.30
2019-02-10T08:58:06.141Z,37.40
2019-02-10T09:00:34.731Z,38.00
2019-02-10T09:03:03.366Z,37.40
2019-02-10T09:05:32.086Z,37.40
2019-02-10T09:08:00.628Z,37.40
2019-02-10T09:10:29.450Z,37.30
2019-02-10T09:12:58.424Z,37.30
2019-02-10T09:15:27.608Z,37.20
2019-02-10T09:17:56.523Z,37.20
2019-02-10T09:20:25.473Z,37.10
2019-02-10T09:22:54.022Z,37.20
2019-02-10T09:25:22.861Z,37.10
2019-02-10T09:27:52.273Z,37.10
2019-02-10T09:30:20.961Z,37.40
2019-02-10T09:32:49.766Z,37.90
2019-02-10T09:35:18.276Z,38.20
2019-02-10T09:37:47.082Z,38.30
2019-02-10T09:40:15.663Z,42.10
2019-02-10T09:42:47.260Z,39.50
2019-02-10T09:45:15.872Z,39.70
2019-02-10T09:47:44.407Z,39.60
2019-02-10T09:50:17.209Z,40.00
2019-02-10T09:52:45.812Z,40.40
2019-02-10T09:55:14.763Z,40.40
2019-02-10T09:57:46.450Z,39.90
2019-02-10T10:00:14.960Z,39.80
2019-02-10T10:02:43.454Z,39.90
2019-02-10T10:05:12.956Z,39.80
2019-02-10T10:07:44.495Z,39.60
2019-02-10T10:10:13.645Z,39.50
2019-02-10T10:12:42.169Z,39.50
2019-02-10T10:15:16.936Z,39.40
2019-02-10T10:17:45.927Z,39.30
2019-02-10T10:20:15.841Z,39.30
2019-02-10T10:22:44.725Z,39.90
2019-02-10T10:25:13.226Z,39.20
2019-02-10T10:27:41.699Z,39.20
2019-02-10T10:30:11.882Z,39.10
2019-02-10T10:32:40.364Z,38.90
2019-02-10T10:35:09.603Z,38.90
2019-02-10T10:37:38.111Z,38.90
2019-02-10T10:40:08.085Z,38.90
2019-02-10T10:42:36.626Z,39.00
2019-02-10T10:45:07.015Z,38.90
2019-02-10T10:47:35.502Z,38.80
2019-02-10T10:50:04.708Z,38.80
2019-02-10T10:52:33.293Z,38.80
2019-02-10T10:55:01.825Z,38.80
2019-02-10T10:57:30.419Z,39.40
2019-02-10T10:59:58.903Z,38.70
2019-02-10T11:02:27.418Z,38.70
2019-02-10T11:04:55.894Z,38.70
2019-02-10T11:07:24.424Z,38.70
2019-02-10T11:09:52.968Z,38.60
2019-02-10T11:12:21.582Z,38.70
2019-02-10T11:14:50.074Z,38.60
2019-02-10T11:17:18.685Z,38.70
2019-02-10T11:19:47.223Z,38.60
2019-02-10T11:22:15.785Z,38.60
2019-02-10T11:24:44.631Z,39.30
2019-02-10T11:27:13.269Z,38.60
2019-02-10T11:29:44.952Z,38.60
2019-02-10T11:32:13.481Z,38.60
2019-02-10T11:34:46.241Z,38.60
2019-02-10T11:37:12.161Z,38.50
2019-02-10T11:39:43.975Z,38.50
2019-02-10T11:42:10.734Z,38.50
2019-02-10T11:44:39.347Z,38.50
2019-02-10T11:47:07.824Z,38.50
2019-02-10T11:49:36.375Z,38.50
2019-02-10T11:52:04.841Z,38.50
2019-02-10T11:54:33.317Z,38.40
2019-02-10T11:57:01.825Z,38.50
2019-02-10T11:59:30.856Z,38.40
2019-02-10T12:01:59.328Z,38.50
2019-02-10T12:04:28.952Z,38.30
2019-02-10T12:06:57.476Z,38.40
2019-02-10T12:09:26.017Z,38.40
2019-02-10T12:11:54.512Z,38.50
2019-02-10T12:14:23.079Z,38.40
2019-02-10T12:16:51.581Z,38.40
2019-02-10T12:19:20.061Z,38.40
2019-02-10T12:21:48.629Z,38.40
2019-02-10T12:24:17.240Z,38.50
2019-02-10T12:26:45.793Z,38.50
2019-02-10T12:29:14.336Z,38.50
2019-02-10T12:31:42.848Z,38.50
2019-02-10T12:34:11.851Z,38.50
2019-02-10T12:36:40.562Z,38.50
2019-02-10T12:39:09.168Z,38.40
2019-02-10T12:41:37.839Z,38.50
2019-02-10T12:44:06.337Z,38.40
2019-02-10T12:46:35.274Z,38.40
2019-02-10T12:49:03.788Z,38.40
2019-02-10T12:51:32.416Z,38.40
2019-02-10T12:54:00.903Z,38.40
2019-02-10T12:56:29.558Z,38.20
2019-02-10T12:58:58.089Z,38.10
2019-02-10T13:01:26.681Z,38.20
2019-02-10T13:03:55.187Z,38.10
2019-02-10T13:06:23.689Z,38.40
2019-02-10T13:08:52.169Z,39.20
2019-02-10T13:11:20.702Z,38.90
2019-02-10T13:13:49.320Z,38.90
2019-02-10T13:16:17.939Z,39.20
2019-02-10T13:18:46.381Z,39.40
2019-02-10T13:21:15.008Z,39.60
2019-02-10T13:23:43.491Z,39.80
2019-02-10T13:26:12.163Z,40.10
2019-02-10T13:28:40.704Z,40.00
2019-02-10T13:31:09.432Z,39.50
2019-02-10T13:33:37.921Z,39.60
2019-02-10T13:36:06.405Z,39.50
2019-02-10T13:38:34.932Z,39.80
2019-02-10T13:41:03.419Z,40.00
2019-02-10T13:43:33.539Z,43.70
2019-02-10T13:46:01.987Z,41.40
2019-02-10T13:48:30.505Z,41.60
2019-02-10T13:50:59.069Z,41.40
2019-02-10T13:53:27.562Z,41.40
2019-02-10T13:55:56.165Z,41.40
2019-02-10T13:58:24.684Z,41.90
2019-02-10T14:00:53.148Z,41.80
2019-02-10T14:03:24.760Z,41.90
2019-02-10T14:05:53.266Z,42.10
2019-02-10T14:08:21.839Z,42.20
2019-02-10T14:10:50.315Z,42.10
2019-02-10T14:13:18.834Z,42.00
2019-02-10T14:15:47.749Z,42.20
2019-02-10T14:18:16.293Z,42.80
2019-02-10T14:20:45.055Z,42.10
2019-02-10T14:23:13.534Z,42.10
2019-02-10T14:25:45.429Z,41.90
2019-02-10T14:28:13.904Z,42.70
2019-02-10T14:30:42.380Z,42.00
2019-02-10T14:33:10.921Z,42.00
2019-02-10T14:35:39.411Z,41.90
2019-02-10T14:38:07.918Z,41.90
2019-02-10T14:40:36.393Z,41.80
2019-02-10T14:43:04.887Z,41.90
2019-02-10T14:45:33.434Z,42.00
2019-02-10T14:48:01.965Z,41.90
2019-02-10T14:50:55.694Z,42.00
2019-02-10T14:53:25.656Z,42.10
2019-02-10T14:55:54.581Z,41.70
2019-02-10T14:58:23.206Z,41.70
2019-02-10T15:00:51.764Z,41.50
2019-02-10T15:03:20.258Z,42.10
2019-02-10T15:05:48.922Z,41.50
2019-02-10T15:08:17.483Z,41.50
2019-02-10T15:10:46.021Z,41.50
2019-02-10T15:13:17.787Z,41.50
2019-02-10T15:15:46.256Z,41.40
2019-02-10T15:18:14.770Z,41.50
2019-02-10T15:20:43.270Z,42.20
2019-02-10T15:23:11.792Z,41.50
2019-02-10T15:25:40.300Z,41.50
2019-02-10T15:28:08.786Z,41.50
2019-02-10T15:30:37.340Z,41.50
2019-02-10T15:33:06.349Z,41.40
2019-02-10T15:35:34.933Z,41.30
2019-02-10T15:38:03.481Z,41.40
2019-02-10T15:40:31.950Z,41.40
2019-02-10T15:43:00.547Z,41.40
2019-02-10T15:45:29.098Z,41.40
2019-02-10T15:47:57.628Z,41.40
2019-02-10T15:50:26.103Z,40.30
2019-02-10T15:52:54.729Z,41.10
2019-02-10T15:55:23.253Z,41.10
2019-02-10T15:57:51.874Z,41.00
2019-02-10T16:00:22.008Z,41.00
2019-02-10T16:02:50.601Z,40.80
2019-02-10T16:05:19.150Z,40.80
2019-02-10T16:07:47.770Z,40.30
2019-02-10T16:10:16.326Z,40.60
2019-02-10T16:12:44.882Z,40.70
2019-02-10T16:15:13.418Z,40.50
2019-02-10T16:17:41.975Z,40.10
2019-02-10T16:20:14.005Z,39.20
2019-02-10T16:22:42.475Z,38.80
2019-02-10T16:25:11.012Z,39.60
2019-02-10T16:27:39.506Z,40.00
2019-02-10T16:30:09.594Z,40.10
2019-02-10T16:32:38.159Z,40.20
2019-02-10T16:35:07.272Z,40.30
2019-02-10T16:37:35.785Z,40.20
2019-02-10T16:40:18.060Z,40.20
2019-02-10T16:42:46.593Z,40.10
2019-02-10T16:45:15.141Z,40.20
2019-02-10T16:47:43.719Z,40.30
2019-02-10T16:50:41.929Z,40.30
2019-02-10T16:53:10.523Z,40.70
2019-02-10T16:55:39.053Z,40.20
2019-02-10T16:58:07.669Z,40.20
2019-02-10T17:00:36.232Z,41.40
2019-02-10T17:03:05.476Z,42.10
2019-02-10T17:05:34.036Z,41.50
2019-02-10T17:08:02.825Z,40.70
2019-02-10T17:10:31.527Z,40.60
2019-02-10T17:13:00.056Z,40.60
2019-02-10T17:15:28.555Z,40.30
2019-02-10T17:17:57.175Z,40.20
2019-02-10T17:20:25.637Z,40.40
2019-02-10T17:22:54.188Z,39.40
2019-02-10T17:25:26.487Z,40.70
2019-02-10T17:27:55.046Z,40.10
2019-02-10T17:30:23.566Z,40.50
2019-02-10T17:32:52.107Z,40.50
2019-02-10T17:35:23.890Z,40.70
2019-02-10T17:37:52.365Z,41.40
2019-02-10T17:40:37.655Z,40.90
2019-02-10T17:43:06.135Z,40.90
2019-02-10T17:45:34.681Z,41.00
2019-02-10T17:48:03.164Z,41.00
2019-02-10T17:50:31.744Z,41.10
2019-02-10T17:53:00.213Z,41.10
2019-02-10T17:55:28.688Z,41.40
2019-02-10T17:58:00.466Z,41.20
2019-02-10T18:00:33.656Z,41.30
2019-02-10T18:03:02.227Z,41.30
2019-02-10T18:05:30.751Z,41.40
2019-02-10T18:07:59.813Z,41.40
2019-02-10T18:10:28.405Z,41.40
2019-02-10T18:13:00.141Z,41.40
2019-02-10T18:15:47.106Z,41.40
2019-02-10T18:18:29.510Z,41.40
2019-02-10T18:21:21.100Z,41.40
2019-02-10T18:24:00.202Z,41.20
2019-02-10T18:26:33.149Z,41.40
2019-02-10T18:29:03.342Z,41.40
2019-02-10T18:31:42.218Z,41.40
2019-02-10T18:34:15.150Z,41.50
2019-02-10T18:36:45.289Z,41.50
2019-02-10T18:39:15.397Z,41.50
2019-02-10T18:41:45.560Z,41.60
2019-02-10T18:44:15.714Z,41.80
2019-02-10T18:47:00.694Z,41.80
2019-02-10T18:49:36.672Z,41.80
2019-02-10T18:52:06.824Z,41.80
2019-02-10T18:54:52.523Z,41.80
2019-02-10T18:57:31.719Z,41.80
2019-02-10T19:00:20.071Z,41.70
2019-02-10T19:02:50.218Z,41.70
2019-02-10T19:05:26.258Z,41.80
2019-02-10T19:08:14.416Z,41.60
2019-02-10T19:10:44.593Z,41.60
2019-02-10T19:13:26.919Z,41.70
2019-02-10T19:15:57.105Z,41.60
2019-02-10T19:18:33.131Z,42.50
2019-02-10T19:21:06.070Z,42.50
2019-02-10T19:23:48.436Z,41.90
2019-02-10T19:26:18.607Z,41.90
2019-02-10T19:28:51.292Z,42.00
2019-02-10T19:31:24.306Z,42.00
2019-02-10T19:33:54.743Z,41.90
2019-02-10T19:36:27.863Z,41.90
2019-02-10T19:39:16.108Z,41.90
2019-02-10T19:41:46.347Z,41.90
2019-02-10T19:44:31.740Z,42.00
2019-02-10T19:47:01.931Z,41.90
2019-02-10T19:49:44.292Z,42.40
2019-02-10T19:52:20.771Z,41.80
2019-02-10T19:54:56.668Z,41.80
2019-02-10T19:57:51.870Z,41.90
2019-02-10T20:00:22.384Z,42.20
2019-02-10T20:02:58.647Z,41.80
2019-02-10T20:05:31.849Z,41.70
2019-02-10T20:08:22.038Z,41.80
2019-02-10T20:11:08.951Z,41.80
2019-02-10T20:13:42.147Z,41.90
2019-02-10T20:16:21.563Z,41.70
2019-02-10T20:18:51.772Z,41.80
2019-02-10T20:21:27.665Z,41.70
2019-02-10T20:23:57.955Z,41.70
2019-02-10T20:26:46.489Z,41.70
2019-02-10T20:29:19.416Z,41.70
2019-02-10T20:32:07.603Z,41.60
2019-02-10T20:34:43.519Z,41.60
2019-02-10T20:37:22.747Z,41.60
2019-02-10T20:39:55.836Z,41.60
2019-02-10T20:42:29.174Z,41.60
2019-02-10T20:45:08.171Z,41.70
2019-02-10T20:48:10.205Z,41.70
2019-02-10T20:50:54.252Z,42.00
2019-02-10T20:53:30.190Z,42.40
2019-02-10T20:56:12.492Z,41.80
2019-02-10T20:58:48.777Z,41.80
2019-02-10T21:01:27.916Z,41.70
2019-02-10T21:04:10.111Z,41.80
2019-02-10T21:06:46.279Z,41.70
2019-02-10T21:09:19.167Z,41.70
2019-02-10T21:11:55.038Z,41.80
2019-02-10T21:14:34.327Z,39.60
2019-02-10T21:17:04.448Z,42.30
2019-02-10T21:19:38.048Z,41.70
2019-02-10T21:22:08.212Z,40.20
2019-02-10T21:24:41.004Z,41.00
2019-02-10T21:27:26.460Z,41.10
2019-02-10T21:30:05.615Z,41.30
2019-02-10T21:32:42.030Z,41.20
2019-02-10T21:35:24.048Z,41.30
2019-02-10T21:38:09.353Z,41.40
2019-02-10T21:40:51.733Z,41.40
2019-02-10T21:43:30.347Z,41.60
2019-02-10T21:46:00.476Z,41.40
2019-02-10T21:48:33.537Z,42.00
2019-02-10T21:51:02.059Z,42.40
2019-02-10T21:53:30.652Z,42.40
2019-02-10T21:55:59.132Z,41.90
2019-02-10T21:58:27.634Z,41.50
2019-02-10T22:01:02.443Z,41.60
2019-02-10T22:03:31.077Z,38.30
2019-02-10T22:06:03.083Z,36.00
2019-02-10T22:08:31.654Z,36.10
2019-02-10T22:11:00.251Z,38.60
2019-02-10T22:13:28.824Z,39.10
2019-02-10T22:15:57.829Z,39.30
2019-02-10T22:18:26.779Z,39.40
2019-02-10T22:20:55.814Z,39.50
2019-02-10T22:23:24.482Z,39.60
2019-02-10T22:25:53.316Z,39.70
2019-02-10T22:28:21.899Z,39.80
2019-02-10T22:30:50.401Z,39.80
2019-02-10T22:33:18.969Z,40.10
2019-02-10T22:35:47.529Z,40.20
2019-02-10T22:38:16.165Z,40.20
2019-02-10T22:40:44.656Z,40.20
2019-02-10T22:43:13.192Z,40.00
2019-02-10T22:45:48.004Z,40.00
2019-02-10T22:48:16.452Z,39.90
2019-02-10T22:50:44.980Z,38.40
2019-02-10T22:53:19.633Z,39.00
2019-02-10T22:55:48.132Z,38.50
2019-02-10T22:58:16.724Z,38.60
2019-02-10T23:00:47.492Z,38.70
2019-02-10T23:03:16.152Z,38.80
2019-02-10T23:05:44.649Z,38.90
2019-02-10T23:08:13.113Z,39.00
2019-02-10T23:10:41.634Z,39.10
2019-02-10T23:13:10.155Z,39.20
2019-02-10T23:15:38.629Z,39.30
2019-02-10T23:18:07.141Z,39.30
2019-02-10T23:20:35.660Z,39.30
2019-02-10T23:23:04.213Z,39.30
2019-02-10T23:25:32.704Z,39.30
2019-02-10T23:28:01.270Z,39.90
2019-02-10T23:30:29.785Z,39.40
2019-02-10T23:32:58.354Z,39.40
2019-02-10T23:35:26.822Z,39.40
2019-02-10T23:37:55.427Z,39.90
2019-02-10T23:40:23.931Z,39.40
2019-02-10T23:42:52.402Z,39.50
2019-02-10T23:45:21.350Z,39.50
2019-02-10T23:47:49.888Z,39.50
2019-02-10T23:50:18.468Z,39.60
2019-02-10T23:52:47.397Z,39.50
2019-02-10T23:55:16.018Z,39.50
2019-02-10T23:57:44.607Z,39.60
